createdAt,value
2022-11-25T00:00:38.084Z,66.93
2022-11-25T00:05:39.555Z,67.05
2022-11-25T00:10:41.051Z,67.15
2022-11-25T00:15:42.494Z,67.94
2022-11-25T00:20:43.900Z,68.25
2022-11-25T00:25:45.383Z,67.85
2022-11-25T00:30:46.895Z,67.08
2022-11-25T00:35:48.303Z,66.29
2022-11-25T00:40:52.890Z,66.29
2022-11-25T00:45:54.425Z,66.89
2022-11-25T00:50:55.928Z,67.73
2022-11-25T00:56:01.973Z,68.19
2022-11-25T01:01:03.946Z,68.59
2022-11-25T01:06:10.648Z,68.33
2022-11-25T01:11:14.682Z,68.95
2022-11-25T01:16:19.161Z,69.06
2022-11-25T01:21:24.336Z,68.84
2022-11-25T01:26:25.820Z,69.02
2022-11-25T01:31:29.740Z,68.64
2022-11-25T01:36:31.255Z,68.69
2022-11-25T01:41:34.493Z,69.09
2022-11-25T01:46:46.744Z,69.33
2022-11-25T01:52:03.065Z,69.88
2022-11-25T01:57:28.239Z,68.99
2022-11-25T02:02:30.104Z,68.55
2022-11-25T02:07:35.560Z,69.29
2022-11-25T02:12:40.534Z,69.18
2022-11-25T02:17:45.707Z,68.57
2022-11-25T02:23:24.649Z,68.02
2022-11-25T02:28:30.026Z,69.21
2022-11-25T02:33:32.222Z,69.04
2022-11-25T02:38:55.871Z,69.46
2022-11-25T02:44:00.199Z,69.15
2022-11-25T02:49:10.616Z,67.93
2022-11-25T02:54:14.699Z,68.22
2022-11-25T02:59:16.301Z,68.67
2022-11-25T03:04:17.850Z,69.47
2022-11-25T03:09:19.283Z,68.46
2022-11-25T03:14:20.836Z,68.61
2022-11-25T03:19:22.461Z,68.32
2022-11-25T03:24:26.746Z,68.68
2022-11-25T03:29:28.144Z,68.84
2022-11-25T03:34:30.308Z,69.46
2022-11-25T03:39:33.146Z,69.70
2022-11-25T03:44:35.195Z,69.32
2022-11-25T03:49:36.789Z,68.96
2022-11-25T03:54:39.071Z,68.87
2022-11-25T03:59:53.115Z,68.36
2022-11-25T04:04:54.615Z,68.75
2022-11-25T04:09:56.040Z,69.19
2022-11-25T04:15:01.071Z,70.40
2022-11-25T04:20:03.568Z,69.22
2022-11-25T04:25:05.922Z,69.55
2022-11-25T04:30:08.198Z,69.63
2022-11-25T04:35:12.654Z,69.88
2022-11-25T04:40:18.210Z,69.97
2022-11-25T04:45:25.021Z,70.07
2022-11-25T04:50:31.231Z,69.39
2022-11-25T04:55:40.913Z,68.23
2022-11-25T05:00:47.363Z,68.15
2022-11-25T05:05:49.763Z,68.68
2022-11-25T05:10:52.198Z,67.81
2022-11-25T05:15:54.088Z,68.01
2022-11-25T05:21:02.589Z,68.67
2022-11-25T05:26:06.011Z,69.01
2022-11-25T05:31:14.793Z,69.04
2022-11-25T05:36:17.574Z,69.54
2022-11-25T05:41:21.489Z,69.63
2022-11-25T05:46:24.575Z,69.33
2022-11-25T05:51:30.034Z,69.78
2022-11-25T05:56:34.070Z,69.92
2022-11-25T06:02:01.466Z,70.78
2022-11-25T06:07:04.487Z,70.60
2022-11-25T06:12:06.330Z,70.25
2022-11-25T06:17:12.710Z,70.53
2022-11-25T06:22:22.997Z,70.42
2022-11-25T06:27:24.864Z,70.42
2022-11-25T06:32:26.309Z,70.34
2022-11-25T06:37:33.620Z,70.31
2022-11-25T06:42:35.158Z,70.30
2022-11-25T06:47:36.747Z,70.15
2022-11-25T06:52:38.169Z,69.52
2022-11-25T06:57:39.669Z,69.62
2022-11-25T07:02:46.657Z,69.09
2022-11-25T07:07:49.888Z,68.94
2022-11-25T07:12:51.311Z,69.61
2022-11-25T07:17:52.949Z,68.93
2022-11-25T07:22:54.335Z,68.38
2022-11-25T07:27:55.811Z,67.87
2022-11-25T07:32:57.296Z,66.21
2022-11-25T07:37:58.844Z,66.46
2022-11-25T07:43:00.342Z,66.50
2022-11-25T07:48:02.857Z,66.88
2022-11-25T07:53:04.359Z,66.81
2022-11-25T07:58:05.781Z,67.66
2022-11-25T08:03:07.331Z,67.82
2022-11-25T08:08:08.940Z,68.42
2022-11-25T08:13:10.460Z,67.46
2022-11-25T08:18:11.852Z,67.54
2022-11-25T08:23:13.361Z,68.39
2022-11-25T08:28:14.833Z,67.99
2022-11-25T08:33:16.376Z,68.57
2022-11-25T08:38:17.805Z,68.20
2022-11-25T08:43:20.598Z,68.29
2022-11-25T08:48:23.360Z,68.84
2022-11-25T08:53:24.807Z,68.11
2022-11-25T08:58:26.287Z,69.20
2022-11-25T09:03:28.292Z,68.82
2022-11-25T09:08:30.071Z,69.27
2022-11-25T09:13:31.912Z,68.25
2022-11-25T09:18:33.355Z,68.80
2022-11-25T09:23:34.753Z,68.54
2022-11-25T09:28:36.363Z,68.36
2022-11-25T09:33:37.872Z,68.38
2022-11-25T09:38:43.142Z,68.44
2022-11-25T09:44:00.957Z,68.70
2022-11-25T09:49:29.157Z,67.80
2022-11-25T09:54:44.261Z,66.65
2022-11-25T09:59:58.050Z,66.43
2022-11-25T10:05:09.377Z,66.74
2022-11-25T10:10:32.728Z,66.96
2022-11-25T10:15:40.719Z,66.95
2022-11-25T10:20:42.536Z,66.75
2022-11-25T10:25:53.120Z,67.83
2022-11-25T10:31:04.245Z,69.71
2022-11-25T10:36:27.389Z,70.04
2022-11-25T10:41:34.780Z,70.30
2022-11-25T10:47:21.265Z,69.79
2022-11-25T10:52:14.771Z,69.59
2022-11-25T10:57:19.672Z,68.50
2022-11-25T11:02:36.954Z,67.35
2022-11-25T11:07:44.114Z,66.74
2022-11-25T11:12:51.399Z,64.36
2022-11-25T11:17:54.581Z,62.37
2022-11-25T11:23:09.451Z,62.19
2022-11-25T11:28:40.869Z,60.82
2022-11-25T11:33:48.256Z,61.13
2022-11-25T11:39:11.037Z,60.39
2022-11-25T11:44:40.383Z,58.48
2022-11-25T11:49:41.768Z,59.57
2022-11-25T11:54:53.907Z,58.64
2022-11-25T11:59:55.913Z,59.74
2022-11-25T12:05:09.762Z,58.44
2022-11-25T12:10:14.174Z,59.44
2022-11-25T12:15:37.320Z,59.18
2022-11-25T12:20:49.092Z,59.65
2022-11-25T12:25:56.755Z,60.23
2022-11-25T12:31:26.809Z,61.60
2022-11-25T12:36:36.389Z,61.29
2022-11-25T12:41:43.599Z,61.40
2022-11-25T12:46:47.830Z,61.35
2022-11-25T12:52:06.406Z,61.02
2022-11-25T12:57:19.848Z,61.79
2022-11-25T13:02:39.871Z,62.18
2022-11-25T13:08:11.911Z,62.18
2022-11-25T13:13:35.242Z,61.23
2022-11-25T13:18:41.131Z,61.73
2022-11-25T13:23:51.228Z,61.83
2022-11-25T13:28:52.700Z,62.16
2022-11-25T13:33:58.534Z,62.05
2022-11-25T13:39:05.678Z,62.36
2022-11-25T13:44:34.805Z,63.71
2022-11-25T13:49:56.124Z,64.08
2022-11-25T13:54:58.128Z,65.12
2022-11-25T14:00:27.523Z,65.90
2022-11-25T14:06:05.678Z,65.71
2022-11-25T14:11:44.815Z,67.42
2022-11-25T14:16:57.744Z,69.33
2022-11-25T14:22:23.177Z,69.14
2022-11-25T14:27:33.875Z,70.53
2022-11-25T14:32:44.122Z,70.13
2022-11-25T14:37:49.313Z,69.80
2022-11-25T14:42:58.169Z,70.43
2022-11-25T14:48:19.784Z,71.01
2022-11-25T14:53:21.256Z,71.72
2022-11-25T14:58:22.725Z,72.01
2022-11-25T15:03:24.480Z,72.22
2022-11-25T15:08:26.288Z,72.61
2022-11-25T15:13:58.137Z,72.66
2022-11-25T15:19:02.395Z,72.35
2022-11-25T15:24:06.705Z,72.92
2022-11-25T15:29:12.761Z,72.96
2022-11-25T15:34:15.935Z,72.40
2022-11-25T15:39:20.178Z,72.78
2022-11-25T15:44:28.098Z,73.16
2022-11-25T15:49:30.082Z,73.04
2022-11-25T15:54:38.110Z,73.78
2022-11-25T15:59:45.559Z,73.85
2022-11-25T16:04:47.075Z,73.36
2022-11-25T16:09:51.648Z,73.44
2022-11-25T16:14:53.049Z,74.22
2022-11-25T16:19:54.640Z,74.32
2022-11-25T16:25:00.594Z,74.85
2022-11-25T16:30:06.618Z,75.61
2022-11-25T16:35:18.213Z,75.27
2022-11-25T16:40:19.616Z,75.14
2022-11-25T16:45:23.735Z,75.01
2022-11-25T16:50:25.138Z,74.65
2022-11-25T16:55:26.755Z,75.79
2022-11-25T17:00:28.314Z,74.93
2022-11-25T17:05:29.709Z,74.20
2022-11-25T17:10:31.230Z,74.22
2022-11-25T17:15:36.111Z,74.90
2022-11-25T17:20:37.688Z,74.97
2022-11-25T17:25:39.174Z,75.23
2022-11-25T17:30:41.698Z,74.73
2022-11-25T17:35:44.110Z,75.31
2022-11-25T17:40:46.516Z,75.95
2022-11-25T17:45:48.102Z,76.12
2022-11-25T17:50:49.533Z,76.60
2022-11-25T17:55:51.930Z,75.88
2022-11-25T18:00:53.438Z,76.47
2022-11-25T18:05:54.981Z,76.13
2022-11-25T18:10:56.602Z,76.26
2022-11-25T18:15:58.102Z,75.29
2022-11-25T18:20:59.756Z,75.30
2022-11-25T18:26:01.734Z,75.69
2022-11-25T18:31:05.579Z,75.12
2022-11-25T18:36:11.035Z,74.96
2022-11-25T18:41:19.917Z,75.98
2022-11-25T18:46:21.411Z,76.06
2022-11-25T18:51:22.898Z,76.37
2022-11-25T18:56:24.458Z,77.17
2022-11-25T19:01:26.548Z,76.77
2022-11-25T19:06:28.004Z,76.82
2022-11-25T19:11:33.597Z,76.33
2022-11-25T19:16:35.315Z,75.75
2022-11-25T19:21:36.756Z,75.88
2022-11-25T19:26:42.924Z,75.17
2022-11-25T19:31:44.526Z,75.46
2022-11-25T19:36:45.977Z,76.24
2022-11-25T19:41:47.440Z,76.83
2022-11-25T19:47:19.332Z,76.84
2022-11-25T19:52:21.165Z,76.62
2022-11-25T19:57:23.812Z,76.27
2022-11-25T20:02:26.236Z,76.34
2022-11-25T20:07:27.715Z,76.43
2022-11-25T20:12:29.180Z,76.79
2022-11-25T20:17:33.378Z,77.14
2022-11-25T20:22:39.697Z,76.85
2022-11-25T20:27:41.265Z,76.78
2022-11-25T20:32:42.864Z,76.21
2022-11-25T20:37:45.569Z,75.87
2022-11-25T20:42:49.386Z,75.29
2022-11-25T20:47:50.914Z,75.28
2022-11-25T20:52:52.426Z,74.77
2022-11-25T20:57:53.893Z,75.71
2022-11-25T21:02:55.812Z,75.87
2022-11-25T21:07:57.380Z,75.79
2022-11-25T21:12:58.844Z,75.54
2022-11-25T21:18:00.272Z,76.05
2022-11-25T21:23:01.981Z,75.99
2022-11-25T21:28:04.119Z,76.12
2022-11-25T21:33:05.876Z,76.17
2022-11-25T21:38:14.931Z,76.03
2022-11-25T21:43:28.679Z,75.39
2022-11-25T21:48:30.384Z,74.44
2022-11-25T21:53:37.039Z,74.92
2022-11-25T21:58:40.414Z,74.22
2022-11-25T22:03:41.832Z,73.75
2022-11-25T22:08:43.279Z,73.25
2022-11-25T22:13:46.603Z,72.65
2022-11-25T22:18:48.109Z,74.12
2022-11-25T22:23:49.652Z,74.67
2022-11-25T22:28:52.720Z,74.60
2022-11-25T22:33:55.262Z,74.83
2022-11-25T22:38:59.201Z,75.20
2022-11-25T22:44:00.701Z,76.21
2022-11-25T22:49:02.112Z,75.54
2022-11-25T22:54:11.024Z,75.72
2022-11-25T22:59:12.415Z,75.93
2022-11-25T23:04:17.201Z,76.24
2022-11-25T23:09:19.654Z,74.99
2022-11-25T23:14:21.114Z,75.52
2022-11-25T23:19:22.557Z,74.93
2022-11-25T23:24:25.170Z,76.05
2022-11-25T23:29:26.607Z,76.21
2022-11-25T23:34:28.300Z,76.72
2022-11-25T23:39:31.462Z,76.12
2022-11-25T23:44:32.934Z,76.02
2022-11-25T23:49:38.724Z,76.03
2022-11-25T23:54:43.807Z,77.06
2022-11-25T23:59:46.479Z,76.53
